Time;durP1;ratioP1;P1;durP2;ratioP2;P2;SDS_P1;SDS_P2;PMS_P1;PMS_P2;Temp;Humidity;BMP_temperature;BMP_pressure;BME280_temperature;BME280_humidity;BME280_pressure;Samples;Min_cycle;Max_cycle;Signal;HPM_P1;HPM_P2
2022/12/10 00:00:09;;;;;;;21.20;11.27;;;;;;;;;;5009050;28;20472;-68
2022/12/10 00:02:35;;;;;;;14.33;11.43;;;;;;;;;;5006974;28;20467;-67
2022/12/10 00:05:01;;;;;;;16.73;9.30;;;;;;;;;;5007157;28;20827;-68
2022/12/10 00:07:27;;;;;;;13.53;9.93;;;;;;;;;;5006520;28;20424;-68
2022/12/10 00:09:53;;;;;;;15.33;9.70;;;;;;;;;;5007074;28;20428;-67
2022/12/10 00:12:19;;;;;;;12.10;10.83;;;;;;;;;;5009963;28;20519;-68
2022/12/10 00:14:45;;;;;;;14.17;10.23;;;;;;;;;;5011643;28;20866;-68
2022/12/10 00:17:10;;;;;;;18.03;10.70;;;;;;;;;;5011500;28;20435;-68
2022/12/10 00:19:36;;;;;;;14.47;11.20;;;;;;;;;;5010696;28;20450;-68
2022/12/10 00:22:02;;;;;;;11.27;9.67;;;;;;;;;;5011356;28;20432;-68
2022/12/10 00:24:28;;;;;;;15.40;12.40;;;;;;;;;;5011604;28;20990;-68
2022/12/10 00:26:54;;;;;;;13.63;10.43;;;;;;;;;;5010218;28;20447;-68
2022/12/10 00:29:20;;;;;;;11.97;10.33;;;;;;;;;;5008952;28;20419;-68
2022/12/10 00:31:46;;;;;;;19.07;11.13;;;;;;;;;;5011673;28;20432;-68
2022/12/10 00:34:13;;;;;;;14.23;11.07;;;;;;;;;;5010854;28;20572;-68
2022/12/10 00:36:43;;;;;;;23.83;9.87;;;;;;;;;;5011477;28;20436;-68
2022/12/10 00:39:10;;;;;;;12.47;10.00;;;;;;;;;;5012031;28;20921;-68
2022/12/10 00:41:36;;;;;;;13.37;10.43;;;;;;;;;;5011932;28;20492;-68
2022/12/10 00:44:02;;;;;;;15.03;10.87;;;;;;;;;;5011218;28;20471;-68
2022/12/10 00:46:28;;;;;;;14.60;10.60;;;;;;;;;;4994338;28;20774;-68
2022/12/10 00:48:56;;;;;;;9.87;8.87;;;;;;;;;;5011589;28;20467;-68
2022/12/10 00:51:24;;;;;;;23.13;10.67;;;;;;;;;;5011580;28;20834;-68
2022/12/10 00:53:50;;;;;;;12.50;9.90;;;;;;;;;;5011160;28;20444;-68
2022/12/10 00:56:17;;;;;;;13.43;10.43;;;;;;;;;;5011361;28;20526;-68
2022/12/10 00:58:43;;;;;;;15.53;11.50;;;;;;;;;;5012154;28;20424;-68
2022/12/10 01:01:27;;;;;;;18.60;10.80;;;;;;;;;;4993765;28;20836;-68
2022/12/10 01:03:54;;;;;;;15.43;11.17;;;;;;;;;;5010804;28;20959;-68
2022/12/10 01:06:23;;;;;;;14.63;10.60;;;;;;;;;;5010821;28;20424;-68
2022/12/10 01:08:51;;;;;;;14.60;10.33;;;;;;;;;;5011780;28;20436;-68
2022/12/10 01:11:18;;;;;;;14.43;11.57;;;;;;;;;;5010768;28;20429;-67
2022/12/10 01:13:44;;;;;;;14.57;11.57;;;;;;;;;;5011559;28;20471;-68
2022/12/10 01:16:11;;;;;;;17.93;10.80;;;;;;;;;;5011587;28;20439;-68
2022/12/10 01:18:38;;;;;;;15.73;10.60;;;;;;;;;;5010081;28;20785;-68
2022/12/10 01:21:05;;;;;;;14.00;10.67;;;;;;;;;;5010109;28;20495;-68
2022/12/10 01:23:32;;;;;;;17.30;11.27;;;;;;;;;;4993508;28;20494;-68
2022/12/10 01:26:02;;;;;;;16.57;10.70;;;;;;;;;;5011713;28;20438;-68
2022/12/10 01:28:31;;;;;;;17.00;10.80;;;;;;;;;;5011791;28;20932;-68
2022/12/10 01:30:59;;;;;;;10.83;9.70;;;;;;;;;;4992634;28;20506;-68
2022/12/10 01:33:25;;;;;;;12.67;9.30;;;;;;;;;;5010539;28;20452;-68
2022/12/10 01:35:51;;;;;;;20.00;10.00;;;;;;;;;;5010245;28;20436;-68
2022/12/10 01:38:17;;;;;;;14.67;9.13;;;;;;;;;;5011359;28;20942;-68
2022/12/10 01:40:43;;;;;;;13.77;9.80;;;;;;;;;;5010835;28;20562;-68
2022/12/10 01:43:14;;;;;;;12.93;10.30;;;;;;;;;;5009617;28;20463;-68
2022/12/10 01:45:40;;;;;;;11.17;10.07;;;;;;;;;;5011272;28;20428;-68
2022/12/10 01:48:06;;;;;;;13.10;10.83;;;;;;;;;;5010183;28;20700;-68
2022/12/10 01:50:32;;;;;;;12.83;10.83;;;;;;;;;;5010580;28;20494;-68
2022/12/10 01:52:58;;;;;;;22.17;10.27;;;;;;;;;;5010838;28;20437;-68
2022/12/10 01:55:41;;;;;;;14.37;10.47;;;;;;;;;;5010693;28;20440;-68
2022/12/10 01:58:07;;;;;;;15.97;9.37;;;;;;;;;;5010952;28;20431;-68
2022/12/10 02:00:35;;;;;;;15.80;10.23;;;;;;;;;;5010153;28;20495;-68
2022/12/10 02:03:07;;;;;;;15.00;10.50;;;;;;;;;;4992605;28;20452;-68
2022/12/10 02:05:41;;;;;;;11.33;9.33;;;;;;;;;;5010019;28;20567;-68
2022/12/10 02:08:14;;;;;;;14.00;10.83;;;;;;;;;;5010939;28;20913;-68
2022/12/10 02:10:58;;;;;;;14.00;10.27;;;;;;;;;;5010616;28;20791;-68
2022/12/10 02:13:41;;;;;;;14.20;10.80;;;;;;;;;;5010361;28;20503;-68
2022/12/10 02:16:18;;;;;;;16.20;11.03;;;;;;;;;;5010073;28;20542;-68
2022/12/10 02:19:08;;;;;;;17.33;10.90;;;;;;;;;;5009501;28;20514;-68
2022/12/10 02:21:36;;;;;;;14.60;10.73;;;;;;;;;;5009831;28;20502;-68
2022/12/10 02:24:04;;;;;;;15.83;11.83;;;;;;;;;;5009906;28;20508;-67
2022/12/10 02:26:35;;;;;;;17.73;11.27;;;;;;;;;;5010229;28;20435;-68
2022/12/10 02:29:18;;;;;;;13.63;10.40;;;;;;;;;;4992583;28;20802;-67
2022/12/10 02:31:46;;;;;;;13.70;10.90;;;;;;;;;;5009150;28;20450;-68
2022/12/10 02:34:13;;;;;;;17.03;12.20;;;;;;;;;;5007209;28;20503;-68
2022/12/10 02:36:40;;;;;;;15.53;11.10;;;;;;;;;;5009835;28;20428;-68
2022/12/10 02:39:11;;;;;;;15.87;10.50;;;;;;;;;;5009992;28;20436;-68
2022/12/10 02:41:40;;;;;;;11.70;9.70;;;;;;;;;;5009398;28;20492;-68
2022/12/10 02:44:08;;;;;;;12.43;10.63;;;;;;;;;;5008378;28;20478;-67
2022/12/10 02:46:35;;;;;;;16.60;11.10;;;;;;;;;;5008336;28;20447;-68
2022/12/10 02:49:02;;;;;;;12.93;10.43;;;;;;;;;;5006559;28;20793;-68
2022/12/10 02:51:28;;;;;;;12.57;9.87;;;;;;;;;;5008114;28;20432;-68
2022/12/10 02:54:05;;;;;;;11.00;10.00;;;;;;;;;;5008403;28;20436;-68
2022/12/10 02:56:31;;;;;;;13.77;10.40;;;;;;;;;;5008922;28;20855;-68
2022/12/10 02:59:06;;;;;;;13.83;10.83;;;;;;;;;;5008779;28;20928;-68
2022/12/10 03:01:38;;;;;;;14.50;10.40;;;;;;;;;;5008769;28;20529;-67
2022/12/10 03:04:16;;;;;;;14.00;9.87;;;;;;;;;;5007879;28;20440;-68
2022/12/10 03:06:48;;;;;;;13.47;10.63;;;;;;;;;;5008697;28;20857;-68
2022/12/10 03:09:20;;;;;;;12.20;10.20;;;;;;;;;;5009436;28;20436;-68
2022/12/10 03:11:48;;;;;;;10.80;9.70;;;;;;;;;;5010099;28;20502;-68
2022/12/10 03:14:16;;;;;;;15.43;10.50;;;;;;;;;;5009030;28;20437;-68
2022/12/10 03:16:48;;;;;;;12.80;10.63;;;;;;;;;;5009175;28;20494;-68
2022/12/10 03:19:16;;;;;;;14.87;10.33;;;;;;;;;;5006852;28;20440;-68
2022/12/10 03:21:45;;;;;;;12.33;10.23;;;;;;;;;;5009658;28;20530;-68
2022/12/10 03:24:11;;;;;;;10.50;9.17;;;;;;;;;;5008890;28;20432;-68
2022/12/10 03:26:41;;;;;;;12.43;10.27;;;;;;;;;;5008601;28;20526;-68
2022/12/10 03:29:09;;;;;;;12.93;10.80;;;;;;;;;;5009999;28;20420;-68
2022/12/10 03:31:36;;;;;;;16.03;10.27;;;;;;;;;;5008527;28;20458;-68
2022/12/10 03:34:03;;;;;;;11.70;9.90;;;;;;;;;;4990528;28;20443;-68
2022/12/10 03:36:30;;;;;;;15.97;10.60;;;;;;;;;;5008528;28;20870;-67
2022/12/10 03:38:56;;;;;;;15.87;11.10;;;;;;;;;;5009098;28;20998;-68
2022/12/10 03:41:22;;;;;;;17.00;11.33;;;;;;;;;;5009162;28;21012;-68
2022/12/10 03:43:58;;;;;;;14.50;10.80;;;;;;;;;;5008743;28;20511;-68
2022/12/10 03:46:25;;;;;;;21.33;9.73;;;;;;;;;;4995104;28;20440;-68
2022/12/10 03:48:51;;;;;;;13.33;10.90;;;;;;;;;;5012015;28;20432;-68
2022/12/10 03:51:17;;;;;;;16.43;11.07;;;;;;;;;;5013286;28;20490;-68
2022/12/10 03:53:43;;;;;;;14.67;10.33;;;;;;;;;;5013202;28;20452;-68
2022/12/10 03:56:10;;;;;;;12.73;9.60;;;;;;;;;;5012988;28;20510;-68
2022/12/10 03:58:36;;;;;;;13.23;10.03;;;;;;;;;;5012114;28;20920;-68
2022/12/10 04:01:03;;;;;;;12.60;10.00;;;;;;;;;;5012865;28;20515;-68
2022/12/10 04:03:29;;;;;;;14.23;11.33;;;;;;;;;;5010204;28;20805;-68
2022/12/10 04:06:01;;;;;;;14.03;11.10;;;;;;;;;;4994436;28;20955;-68
2022/12/10 04:08:27;;;;;;;11.20;9.87;;;;;;;;;;4994804;28;20471;-68
2022/12/10 04:10:53;;;;;;;13.83;10.30;;;;;;;;;;5012728;28;20452;-67
2022/12/10 04:18:48;;;;;;;12.20;10.10;;;;;;;;;;5011328;28;20486;-68
2022/12/10 04:26:52;;;;;;;14.10;10.80;;;;;;;;;;5012727;28;20823;-68
2022/12/10 04:29:26;;;;;;;17.33;10.90;;;;;;;;;;5010775;28;20447;-68
2022/12/10 04:31:52;;;;;;;12.57;10.70;;;;;;;;;;5011605;28;20435;-68
2022/12/10 04:34:18;;;;;;;12.43;9.60;;;;;;;;;;5010574;28;20460;-68
2022/12/10 04:36:44;;;;;;;11.30;9.70;;;;;;;;;;5011955;28;20528;-68
2022/12/10 04:39:11;;;;;;;12.93;10.43;;;;;;;;;;5011985;28;20440;-67
2022/12/10 04:41:38;;;;;;;12.63;10.47;;;;;;;;;;4994467;28;21006;-68
2022/12/10 04:44:04;;;;;;;16.70;9.87;;;;;;;;;;5011669;28;20830;-68
2022/12/10 04:46:30;;;;;;;13.90;11.40;;;;;;;;;;5011896;28;20920;-68
2022/12/10 04:48:56;;;;;;;17.50;10.63;;;;;;;;;;5009192;28;20442;-68
2022/12/10 04:51:22;;;;;;;10.73;9.53;;;;;;;;;;5011241;28;20943;-68
2022/12/10 04:53:48;;;;;;;13.77;9.60;;;;;;;;;;5011118;28;20436;-68
2022/12/10 04:56:14;;;;;;;20.07;12.07;;;;;;;;;;5011792;28;20602;-68
2022/12/10 04:58:40;;;;;;;23.00;14.03;;;;;;;;;;5010833;28;20439;-68
2022/12/10 05:01:07;;;;;;;32.47;17.23;;;;;;;;;;5010894;28;20549;-68
2022/12/10 05:03:34;;;;;;;20.13;12.77;;;;;;;;;;5010099;28;20486;-68
2022/12/10 05:06:07;;;;;;;19.43;12.37;;;;;;;;;;5011861;28;20439;-68
2022/12/10 05:08:34;;;;;;;15.00;10.77;;;;;;;;;;5011619;28;20432;-68
2022/12/10 05:11:07;;;;;;;17.00;11.50;;;;;;;;;;5010091;28;20444;-68
2022/12/10 05:13:34;;;;;;;12.23;10.17;;;;;;;;;;5011090;28;20471;-68
2022/12/10 05:16:02;;;;;;;16.67;11.63;;;;;;;;;;5011989;28;20523;-68
2022/12/10 05:18:28;;;;;;;10.97;9.20;;;;;;;;;;5010767;28;20440;-68
2022/12/10 05:20:54;;;;;;;13.73;10.60;;;;;;;;;;5009073;28;21348;-68
2022/12/10 05:23:29;;;;;;;12.37;10.80;;;;;;;;;;5011333;28;20919;-67
2022/12/10 05:26:02;;;;;;;15.83;11.13;;;;;;;;;;5011584;28;20432;-68
2022/12/10 05:28:29;;;;;;;15.93;10.90;;;;;;;;;;5011258;28;20428;-68
2022/12/10 05:30:55;;;;;;;17.10;10.40;;;;;;;;;;5009864;28;20948;-68
2022/12/10 05:33:21;;;;;;;14.17;10.70;;;;;;;;;;5010249;28;20448;-68
2022/12/10 05:36:00;;;;;;;18.23;11.80;;;;;;;;;;5010647;28;20444;-68
2022/12/10 05:38:26;;;;;;;19.73;11.73;;;;;;;;;;5010396;28;20929;-68
2022/12/10 05:40:52;;;;;;;13.70;10.93;;;;;;;;;;5010582;28;20484;-68
2022/12/10 05:43:19;;;;;;;17.70;11.83;;;;;;;;;;4992475;28;20996;-68
2022/12/10 05:45:45;;;;;;;17.57;12.70;;;;;;;;;;5011100;28;20547;-68
2022/12/10 05:48:12;;;;;;;15.20;11.67;;;;;;;;;;5010755;28;20506;-68
2022/12/10 05:50:38;;;;;;;19.67;12.60;;;;;;;;;;5009895;28;20490;-68
2022/12/10 05:53:04;;;;;;;16.03;11.43;;;;;;;;;;5008880;28;20475;-68
2022/12/10 05:55:31;;;;;;;15.57;11.50;;;;;;;;;;5010821;28;20436;-68
2022/12/10 05:57:57;;;;;;;18.20;10.57;;;;;;;;;;5010601;28;20436;-67
2022/12/10 06:00:23;;;;;;;19.63;12.00;;;;;;;;;;5009201;28;20499;-68
2022/12/10 06:02:50;;;;;;;21.20;15.20;;;;;;;;;;4992756;28;21027;-68
2022/12/10 06:05:16;;;;;;;25.30;16.90;;;;;;;;;;5009818;28;20519;-68
2022/12/10 06:07:42;;;;;;;21.73;14.40;;;;;;;;;;5010058;28;20441;-68
2022/12/10 06:10:08;;;;;;;20.17;14.80;;;;;;;;;;4991021;28;20440;-67
2022/12/10 06:12:34;;;;;;;22.07;14.17;;;;;;;;;;5010031;28;20527;-68
2022/12/10 06:15:00;;;;;;;23.70;13.63;;;;;;;;;;5010564;28;20522;-68
2022/12/10 06:17:26;;;;;;;20.40;14.87;;;;;;;;;;5009700;28;20471;-68
2022/12/10 06:19:52;;;;;;;23.93;14.80;;;;;;;;;;5009890;28;20467;-68
2022/12/10 06:22:18;;;;;;;20.80;13.83;;;;;;;;;;5009656;28;20452;-68
2022/12/10 06:24:44;;;;;;;19.33;15.43;;;;;;;;;;5007761;28;20472;-68
2022/12/10 06:27:10;;;;;;;20.40;13.40;;;;;;;;;;5009838;28;20543;-68
2022/12/10 06:29:36;;;;;;;23.63;15.37;;;;;;;;;;5010101;28;20436;-68
2022/12/10 06:32:02;;;;;;;22.50;14.17;;;;;;;;;;5008892;28;20582;-68
2022/12/10 06:34:28;;;;;;;27.50;16.03;;;;;;;;;;5009145;28;20444;-68
2022/12/10 06:36:54;;;;;;;20.20;13.90;;;;;;;;;;5009734;28;20465;-68
2022/12/10 06:39:20;;;;;;;25.87;15.87;;;;;;;;;;5009801;28;20966;-68
2022/12/10 06:41:46;;;;;;;25.30;15.20;;;;;;;;;;5008523;28;20560;-68
2022/12/10 06:44:12;;;;;;;24.40;14.53;;;;;;;;;;5008958;28;20472;-68
2022/12/10 06:46:40;;;;;;;24.17;13.27;;;;;;;;;;5009464;28;20439;-68
2022/12/10 06:49:06;;;;;;;24.70;15.73;;;;;;;;;;5008594;28;20440;-68
2022/12/10 06:51:32;;;;;;;24.17;14.60;;;;;;;;;;5009365;28;20444;-68
2022/12/10 06:53:58;;;;;;;25.83;15.67;;;;;;;;;;5009188;28;20474;-68
2022/12/10 06:56:25;;;;;;;21.40;14.10;;;;;;;;;;5009018;28;20459;-67
2022/12/10 06:58:51;;;;;;;24.30;15.23;;;;;;;;;;5007952;28;21216;-68
2022/12/10 07:01:22;;;;;;;26.90;14.80;;;;;;;;;;5008169;28;20546;-68
2022/12/10 07:03:52;;;;;;;25.00;16.97;;;;;;;;;;5006967;28;20437;-68
2022/12/10 07:06:18;;;;;;;24.83;15.67;;;;;;;;;;5008897;28;20459;-68
2022/12/10 07:08:44;;;;;;;23.87;15.03;;;;;;;;;;5009724;28;20436;-68
2022/12/10 07:11:11;;;;;;;21.83;13.40;;;;;;;;;;5008643;28;21010;-68
2022/12/10 07:13:38;;;;;;;19.20;13.03;;;;;;;;;;5003620;28;20498;-68
2022/12/10 07:16:04;;;;;;;21.47;14.87;;;;;;;;;;5008860;28;20439;-68
2022/12/10 07:18:30;;;;;;;21.70;15.57;;;;;;;;;;5008721;28;20884;-67
2022/12/10 07:20:56;;;;;;;25.40;15.77;;;;;;;;;;4993598;28;20511;-67
2022/12/10 07:23:22;;;;;;;21.73;14.23;;;;;;;;;;5011219;28;20817;-67
2022/12/10 07:25:48;;;;;;;23.17;14.67;;;;;;;;;;5011848;28;20551;-68
2022/12/10 07:28:14;;;;;;;25.73;14.83;;;;;;;;;;4994954;28;20519;-68
2022/12/10 07:30:40;;;;;;;20.33;14.40;;;;;;;;;;5011364;28;20475;-68
2022/12/10 07:33:06;;;;;;;25.97;15.40;;;;;;;;;;5010953;28;20527;-68
2022/12/10 07:35:32;;;;;;;19.30;13.17;;;;;;;;;;5012355;28;20435;-68
2022/12/10 07:37:58;;;;;;;22.70;13.70;;;;;;;;;;5013158;28;20796;-68
2022/12/10 07:40:24;;;;;;;21.03;13.50;;;;;;;;;;5011451;28;20503;-68
2022/12/10 07:42:50;;;;;;;20.87;13.30;;;;;;;;;;5011473;28;20482;-68
2022/12/10 07:45:16;;;;;;;27.47;14.37;;;;;;;;;;5009420;28;20443;-68
2022/12/10 07:47:42;;;;;;;26.27;16.00;;;;;;;;;;5012706;28;20438;-68
2022/12/10 07:50:08;;;;;;;19.33;13.70;;;;;;;;;;5010805;28;20493;-68
2022/12/10 07:52:34;;;;;;;30.00;15.90;;;;;;;;;;5009565;28;20435;-68
2022/12/10 07:55:00;;;;;;;35.03;17.33;;;;;;;;;;5011028;28;20427;-68
2022/12/10 07:57:26;;;;;;;42.70;20.17;;;;;;;;;;5012359;28;20494;-68
2022/12/10 07:59:52;;;;;;;40.00;19.57;;;;;;;;;;5011372;28;20503;-68
2022/12/10 08:02:18;;;;;;;34.80;16.87;;;;;;;;;;5011794;28;20971;-68
2022/12/10 08:04:43;;;;;;;23.53;14.60;;;;;;;;;;5012586;28;20439;-68
2022/12/10 08:07:09;;;;;;;23.47;14.07;;;;;;;;;;4992733;28;20440;-68
2022/12/10 08:09:35;;;;;;;26.03;15.73;;;;;;;;;;5011793;28;20436;-68
2022/12/10 08:12:01;;;;;;;21.07;14.40;;;;;;;;;;4992754;28;20436;-68
2022/12/10 08:14:27;;;;;;;19.80;15.23;;;;;;;;;;5011274;28;20518;-68
2022/12/10 08:16:53;;;;;;;20.90;14.77;;;;;;;;;;5011593;28;20439;-68
2022/12/10 08:19:19;;;;;;;23.70;15.60;;;;;;;;;;5010794;28;20427;-68
2022/12/10 08:21:45;;;;;;;26.63;16.07;;;;;;;;;;5011986;28;20582;-68
2022/12/10 08:24:11;;;;;;;25.73;16.83;;;;;;;;;;5011127;28;20486;-68
2022/12/10 08:26:38;;;;;;;25.80;16.80;;;;;;;;;;5011655;28;20440;-67
2022/12/10 08:29:04;;;;;;;28.33;17.93;;;;;;;;;;5012173;28;20435;-67
2022/12/10 08:31:30;;;;;;;23.30;17.23;;;;;;;;;;5011654;28;20436;-68
2022/12/10 08:33:56;;;;;;;27.67;16.60;;;;;;;;;;5010322;28;20853;-68
2022/12/10 08:36:23;;;;;;;22.57;16.10;;;;;;;;;;5012170;28;20452;-68
2022/12/10 08:38:49;;;;;;;27.17;15.90;;;;;;;;;;5011960;28;20509;-68
2022/12/10 08:41:16;;;;;;;24.27;15.47;;;;;;;;;;5012075;28;20996;-67
2022/12/10 08:43:42;;;;;;;21.77;15.27;;;;;;;;;;5007103;28;20468;-68
2022/12/10 08:46:08;;;;;;;24.57;15.57;;;;;;;;;;5009700;28;20444;-67
2022/12/10 08:48:35;;;;;;;28.30;15.37;;;;;;;;;;5009985;28;20440;-68
2022/12/10 08:51:01;;;;;;;24.50;15.60;;;;;;;;;;5011136;28;20436;-68
2022/12/10 08:53:27;;;;;;;27.00;15.70;;;;;;;;;;5010080;28;20916;-68
2022/12/10 08:55:54;;;;;;;27.50;15.20;;;;;;;;;;4994602;28;20452;-67
2022/12/10 08:58:20;;;;;;;28.23;16.80;;;;;;;;;;5010851;28;20990;-68
2022/12/10 09:00:47;;;;;;;25.10;15.20;;;;;;;;;;5010975;28;20488;-68
2022/12/10 09:03:13;;;;;;;27.07;16.83;;;;;;;;;;5009714;28;20420;-70
2022/12/10 09:05:39;;;;;;;28.07;16.27;;;;;;;;;;4992686;28;20519;-68
2022/12/10 09:08:05;;;;;;;26.67;15.57;;;;;;;;;;5009385;28;20915;-67
2022/12/10 09:10:31;;;;;;;22.73;15.80;;;;;;;;;;5011748;28;20431;-68
2022/12/10 09:12:57;;;;;;;26.50;15.67;;;;;;;;;;4993394;28;20532;-68
2022/12/10 09:15:23;;;;;;;28.90;16.40;;;;;;;;;;5011329;28;20575;-68
2022/12/10 09:17:49;;;;;;;27.40;16.77;;;;;;;;;;4991997;28;20443;-68
2022/12/10 09:20:15;;;;;;;22.90;15.77;;;;;;;;;;5010534;28;20475;-70
2022/12/10 09:22:41;;;;;;;26.00;16.73;;;;;;;;;;5011017;28;20444;-69
2022/12/10 09:25:09;;;;;;;20.53;14.10;;;;;;;;;;5010639;28;21373;-69
2022/12/10 09:27:36;;;;;;;24.00;13.53;;;;;;;;;;5011087;28;20436;-69
2022/12/10 09:30:03;;;;;;;27.63;16.47;;;;;;;;;;4994205;28;20420;-69
2022/12/10 09:32:29;;;;;;;33.03;14.67;;;;;;;;;;5008203;28;20912;-70
2022/12/10 09:34:54;;;;;;;27.47;16.27;;;;;;;;;;5009532;28;20559;-69
2022/12/10 09:37:20;;;;;;;24.60;15.87;;;;;;;;;;5011757;28;20769;-69
2022/12/10 09:39:46;;;;;;;28.60;18.83;;;;;;;;;;5010899;28;20460;-69
2022/12/10 09:42:17;;;;;;;24.50;17.87;;;;;;;;;;5009672;28;20441;-69
2022/12/10 09:44:51;;;;;;;31.23;21.20;;;;;;;;;;5008184;28;20493;-70
2022/12/10 09:47:17;;;;;;;27.33;17.33;;;;;;;;;;5010322;28;20673;-69
2022/12/10 09:50:01;;;;;;;24.83;17.47;;;;;;;;;;5010177;28;20503;-62
2022/12/10 09:52:37;;;;;;;25.50;17.10;;;;;;;;;;5010583;28;20817;-69
2022/12/10 09:55:14;;;;;;;28.53;21.50;;;;;;;;;;5010914;28;20914;-69
2022/12/10 09:57:48;;;;;;;26.57;16.00;;;;;;;;;;5009569;28;20432;-69
2022/12/10 10:00:34;;;;;;;21.67;14.37;;;;;;;;;;5010133;28;20495;-70
2022/12/10 10:03:01;;;;;;;18.83;13.77;;;;;;;;;;5009785;28;20447;-69
2022/12/10 10:05:29;;;;;;;21.33;13.97;;;;;;;;;;5010738;28;20436;-69
2022/12/10 10:07:56;;;;;;;23.20;14.40;;;;;;;;;;4993152;28;20443;-69
2022/12/10 10:10:33;;;;;;;23.17;15.97;;;;;;;;;;5008772;28;20442;-69
2022/12/10 10:13:12;;;;;;;24.07;15.90;;;;;;;;;;5009717;28;20455;-69
2022/12/10 10:15:40;;;;;;;26.47;20.60;;;;;;;;;;5008832;28;20928;-69
2022/12/10 10:18:20;;;;;;;19.23;15.47;;;;;;;;;;5010155;28;20443;-68
2022/12/10 10:20:48;;;;;;;21.50;15.20;;;;;;;;;;5009559;28;20467;-67
2022/12/10 10:23:15;;;;;;;22.93;14.73;;;;;;;;;;5008947;28;20451;-67
2022/12/10 10:25:41;;;;;;;19.33;14.23;;;;;;;;;;5010262;28;20454;-67
2022/12/10 10:28:12;;;;;;;21.30;14.93;;;;;;;;;;5010166;28;20448;-67
2022/12/10 10:30:39;;;;;;;20.80;15.40;;;;;;;;;;5008621;28;20815;-67
2022/12/10 10:33:09;;;;;;;19.50;13.50;;;;;;;;;;5009441;28;20850;-68
2022/12/10 10:35:42;;;;;;;48.77;28.10;;;;;;;;;;4991713;28;20427;-67
2022/12/10 10:38:13;;;;;;;20.80;14.30;;;;;;;;;;5010115;28;20428;-67
2022/12/10 10:40:43;;;;;;;27.70;19.60;;;;;;;;;;5009874;28;20562;-66
2022/12/10 10:43:15;;;;;;;23.30;15.93;;;;;;;;;;5008796;28;20518;-67
2022/12/10 10:45:42;;;;;;;28.47;15.50;;;;;;;;;;5008029;28;20944;-67
2022/12/10 10:48:12;;;;;;;23.13;15.83;;;;;;;;;;5010007;28;20434;-67
2022/12/10 10:50:42;;;;;;;22.07;14.90;;;;;;;;;;5009927;28;20473;-67
2022/12/10 10:53:23;;;;;;;18.80;14.60;;;;;;;;;;5007195;28;20924;-69
2022/12/10 10:55:50;;;;;;;29.70;18.90;;;;;;;;;;5007938;28;20442;-69
2022/12/10 10:58:20;;;;;;;26.33;15.80;;;;;;;;;;5009228;28;20435;-70
2022/12/10 11:01:03;;;;;;;38.83;21.47;;;;;;;;;;5007302;28;20843;-70
2022/12/10 11:03:30;;;;;;;26.00;15.30;;;;;;;;;;5007464;28;20458;-68
2022/12/10 11:05:57;;;;;;;22.53;14.07;;;;;;;;;;5008523;28;20510;-69
2022/12/10 11:08:24;;;;;;;19.97;14.23;;;;;;;;;;5008410;28;20824;-69
2022/12/10 11:10:52;;;;;;;25.03;19.13;;;;;;;;;;5009746;28;20432;-67
2022/12/10 11:13:21;;;;;;;23.67;16.00;;;;;;;;;;5009423;28;20907;-66
2022/12/10 11:15:53;;;;;;;29.10;17.73;;;;;;;;;;4991700;28;20451;-66
2022/12/10 11:18:24;;;;;;;32.73;18.80;;;;;;;;;;5009386;28;20430;-66
2022/12/10 11:21:16;;;;;;;22.80;16.60;;;;;;;;;;5009199;28;21053;-67
2022/12/10 11:23:47;;;;;;;32.20;19.53;;;;;;;;;;5005623;28;20440;-66
2022/12/10 11:26:33;;;;;;;34.40;20.53;;;;;;;;;;5009704;28;20436;-66
2022/12/10 11:29:18;;;;;;;23.27;15.33;;;;;;;;;;5009803;28;20420;-67
2022/12/10 11:31:46;;;;;;;26.23;17.43;;;;;;;;;;5010122;28;20440;-66
2022/12/10 11:34:32;;;;;;;30.10;17.97;;;;;;;;;;5008911;28;20431;-67
2022/12/10 11:37:08;;;;;;;25.83;16.50;;;;;;;;;;5009882;28;20479;-67
2022/12/10 11:39:35;;;;;;;19.80;14.77;;;;;;;;;;5007103;28;20424;-67
2022/12/10 11:42:07;;;;;;;21.17;15.03;;;;;;;;;;5009499;28;20503;-67
2022/12/10 11:44:33;;;;;;;19.87;15.40;;;;;;;;;;5008848;28;20468;-67
2022/12/10 11:47:00;;;;;;;21.57;14.50;;;;;;;;;;5009784;28;20478;-67
2022/12/10 11:49:36;;;;;;;23.53;14.70;;;;;;;;;;4991280;28;20490;-67
2022/12/10 11:52:08;;;;;;;22.47;15.40;;;;;;;;;;5009259;28;20435;-67
2022/12/10 11:54:57;;;;;;;19.00;14.20;;;;;;;;;;5008270;28;20924;-67
2022/12/10 11:57:41;;;;;;;20.60;14.90;;;;;;;;;;5009370;28;20440;-67
2022/12/10 12:00:08;;;;;;;23.10;15.20;;;;;;;;;;5008454;28;20850;-67
2022/12/10 12:02:34;;;;;;;23.67;15.57;;;;;;;;;;4990399;28;20463;-67
2022/12/10 12:05:00;;;;;;;28.50;14.70;;;;;;;;;;5007903;28;20436;-67
2022/12/10 12:07:38;;;;;;;20.23;14.60;;;;;;;;;;5011543;28;20432;-67
2022/12/10 12:10:13;;;;;;;25.13;14.83;;;;;;;;;;5012371;28;20788;-67
2022/12/10 12:12:48;;;;;;;26.33;16.40;;;;;;;;;;5013101;28;20993;-67
2022/12/10 12:15:24;;;;;;;32.97;21.97;;;;;;;;;;5011756;28;20520;-67
2022/12/10 12:17:57;;;;;;;24.57;15.47;;;;;;;;;;5009567;28;20790;-70
2022/12/10 12:20:26;;;;;;;24.17;14.77;;;;;;;;;;5012240;28;20503;-67
2022/12/10 12:22:57;;;;;;;20.30;14.47;;;;;;;;;;5012577;28;20936;-67
2022/12/10 12:25:32;;;;;;;32.13;17.37;;;;;;;;;;4995246;28;20439;-67
2022/12/10 12:28:07;;;;;;;22.67;15.40;;;;;;;;;;5012379;28;20428;-67
2022/12/10 12:30:34;;;;;;;26.10;15.67;;;;;;;;;;5009800;28;20522;-67
2022/12/10 12:33:23;;;;;;;24.67;15.70;;;;;;;;;;5011047;28;20420;-67
2022/12/10 12:36:06;;;;;;;18.50;14.40;;;;;;;;;;4973287;28;20448;-67
2022/12/10 12:38:53;;;;;;;21.50;14.10;;;;;;;;;;5012350;28;20515;-67
2022/12/10 12:41:31;;;;;;;23.57;16.27;;;;;;;;;;4972137;28;20882;-67
2022/12/10 12:44:09;;;;;;;28.13;16.07;;;;;;;;;;5009780;28;20488;-67
2022/12/10 12:46:42;;;;;;;19.60;14.23;;;;;;;;;;5012603;28;20455;-67
2022/12/10 12:49:15;;;;;;;20.03;14.60;;;;;;;;;;5011380;28;20523;-67
2022/12/10 12:52:02;;;;;;;18.33;14.40;;;;;;;;;;5011572;28;20436;-67
2022/12/10 12:54:28;;;;;;;20.20;14.20;;;;;;;;;;5010836;28;20928;-67
2022/12/10 12:57:12;;;;;;;20.20;13.70;;;;;;;;;;5011441;28;20975;-67
2022/12/10 13:00:01;;;;;;;16.43;12.60;;;;;;;;;;5010929;28;20792;-67
2022/12/10 13:02:46;;;;;;;21.83;13.97;;;;;;;;;;5010254;28;21202;-67
2022/12/10 13:05:16;;;;;;;17.37;13.30;;;;;;;;;;5011640;28;20455;-67
2022/12/10 13:07:42;;;;;;;18.70;13.70;;;;;;;;;;5011693;28;20502;-67
2022/12/10 13:10:14;;;;;;;25.90;13.23;;;;;;;;;;5011887;28;20420;-67
2022/12/10 13:12:50;;;;;;;19.27;14.17;;;;;;;;;;5011405;28;20513;-67
2022/12/10 13:15:33;;;;;;;22.00;14.23;;;;;;;;;;5011026;28;20492;-67
2022/12/10 13:18:12;;;;;;;20.63;15.07;;;;;;;;;;5010699;28;20447;-67
2022/12/10 13:20:42;;;;;;;23.27;14.57;;;;;;;;;;5011061;28;20468;-67
2022/12/10 13:23:26;;;;;;;18.27;13.40;;;;;;;;;;5010092;28;20432;-67
2022/12/10 13:25:55;;;;;;;24.60;15.30;;;;;;;;;;5010503;28;20439;-67
2022/12/10 13:28:38;;;;;;;20.37;14.77;;;;;;;;;;5011413;28;20910;-67
2022/12/10 13:31:09;;;;;;;17.53;13.03;;;;;;;;;;4993689;28;20420;-67
2022/12/10 13:33:50;;;;;;;19.50;13.93;;;;;;;;;;5010987;28;20427;-67
2022/12/10 13:36:24;;;;;;;16.23;14.53;;;;;;;;;;5010804;28;20467;-67
2022/12/10 13:38:58;;;;;;;21.93;13.70;;;;;;;;;;5010266;28;20794;-67
2022/12/10 13:44:25;;;;;;;15.97;13.10;;;;;;;;;;5009959;28;20906;-67
2022/12/10 13:47:04;;;;;;;16.07;12.50;;;;;;;;;;5010015;28;20446;-67
2022/12/10 13:49:31;;;;;;;16.37;13.40;;;;;;;;;;5008490;28;20943;-67
2022/12/10 13:51:57;;;;;;;14.83;12.30;;;;;;;;;;5009099;28;20494;-67
2022/12/10 13:54:42;;;;;;;17.53;12.93;;;;;;;;;;5009437;28;20832;-67
2022/12/10 13:57:20;;;;;;;17.03;12.83;;;;;;;;;;5009848;28;20432;-67
2022/12/10 13:59:55;;;;;;;16.80;12.50;;;;;;;;;;5010595;28;20471;-67
2022/12/10 14:02:40;;;;;;;17.77;14.30;;;;;;;;;;4991320;28;20440;-67
2022/12/10 14:05:23;;;;;;;16.90;12.47;;;;;;;;;;5009229;28;20440;-67
2022/12/10 14:07:51;;;;;;;15.07;13.20;;;;;;;;;;5010712;28;20443;-67
2022/12/10 14:10:18;;;;;;;15.53;12.23;;;;;;;;;;5010470;28;20539;-66
2022/12/10 14:12:46;;;;;;;17.83;14.00;;;;;;;;;;5009619;28;20437;-67
2022/12/10 14:15:23;;;;;;;17.37;13.63;;;;;;;;;;5010405;28;20474;-67
2022/12/10 14:17:50;;;;;;;23.77;11.87;;;;;;;;;;5010581;28;20516;-67
2022/12/10 14:20:22;;;;;;;18.70;15.98;;;;;;;;;;5007914;28;20451;-67
2022/12/10 14:22:50;;;;;;;17.93;13.83;;;;;;;;;;5009763;28;20220;-68
2022/12/10 14:25:18;;;;;;;20.43;13.80;;;;;;;;;;4993647;28;20482;-67
2022/12/10 14:27:44;;;;;;;16.03;13.37;;;;;;;;;;5010669;28;20467;-67
2022/12/10 14:30:21;;;;;;;17.00;13.57;;;;;;;;;;4991487;28;20478;-67
2022/12/10 14:32:47;;;;;;;17.93;12.53;;;;;;;;;;5010201;28;20920;-68
2022/12/10 14:35:15;;;;;;;14.33;11.60;;;;;;;;;;5010273;28;20463;-67
2022/12/10 14:37:43;;;;;;;17.87;12.73;;;;;;;;;;5009704;28;20448;-67
2022/12/10 14:40:13;;;;;;;16.47;13.57;;;;;;;;;;4992042;28;20917;-67
2022/12/10 14:42:39;;;;;;;13.30;11.57;;;;;;;;;;5009127;28;20444;-67
2022/12/10 14:45:07;;;;;;;15.33;11.03;;;;;;;;;;5010298;28;20500;-68